sensor_id;sensor_type;location;lat;lon;timestamp;pressure;altitude;pressure_sealevel;temperature;humidity
46714;BME280;32445;51.376;10.874;2022-09-28T00:00:30;97595.09;;;11.41;53.41
46714;BME280;32445;51.376;10.874;2022-09-28T00:03:32;97587.41;;;11.39;53.41
46714;BME280;32445;51.376;10.874;2022-09-28T00:06:32;97591.84;;;11.37;53.57
46714;BME280;32445;51.376;10.874;2022-09-28T00:09:33;97589.25;;;11.37;53.18
46714;BME280;32445;51.376;10.874;2022-09-28T00:12:33;97585.16;;;11.33;54.06
46714;BME280;32445;51.376;10.874;2022-09-28T00:15:34;97584.63;;;11.28;54.09
46714;BME280;32445;51.376;10.874;2022-09-28T00:18:34;97571.72;;;11.27;53.81
46714;BME280;32445;51.376;10.874;2022-09-28T00:21:36;97564.84;;;11.25;54.26
46714;BME280;32445;51.376;10.874;2022-09-28T00:24:37;97563.03;;;11.28;54.45
46714;BME280;32445;51.376;10.874;2022-09-28T00:27:38;97544.56;;;11.18;54.06
46714;BME280;32445;51.376;10.874;2022-09-28T00:30:39;97550.56;;;11.18;54.46
46714;BME280;32445;51.376;10.874;2022-09-28T00:33:39;97544.66;;;11.16;54.50
46714;BME280;32445;51.376;10.874;2022-09-28T00:36:42;97544.56;;;11.18;55.02
46714;BME280;32445;51.376;10.874;2022-09-28T00:39:44;97542.22;;;11.13;54.96
46714;BME280;32445;51.376;10.874;2022-09-28T00:42:44;97532.75;;;10.98;55.68
46714;BME280;32445;51.376;10.874;2022-09-28T00:45:51;97535.59;;;10.93;55.81
46714;BME280;32445;51.376;10.874;2022-09-28T00:48:57;97523.28;;;10.97;55.76
46714;BME280;32445;51.376;10.874;2022-09-28T00:52:03;97513.53;;;11.00;55.63
46714;BME280;32445;51.376;10.874;2022-09-28T00:55:09;97501.13;;;11.05;54.80
46714;BME280;32445;51.376;10.874;2022-09-28T00:58:16;97500.31;;;11.05;55.54
46714;BME280;32445;51.376;10.874;2022-09-28T01:01:17;97501.97;;;11.06;55.47
46714;BME280;32445;51.376;10.874;2022-09-28T01:04:17;97498.44;;;11.07;55.11
46714;BME280;32445;51.376;10.874;2022-09-28T01:07:18;97494.00;;;11.09;55.17
46714;BME280;32445;51.376;10.874;2022-09-28T01:10:18;97490.22;;;11.15;55.08
46714;BME280;32445;51.376;10.874;2022-09-28T01:13:20;97487.31;;;11.19;54.88
46714;BME280;32445;51.376;10.874;2022-09-28T01:16:49;97476.03;;;11.20;55.47
46714;BME280;32445;51.376;10.874;2022-09-28T01:29:34;97468.66;;;11.27;54.41
46714;BME280;32445;51.376;10.874;2022-09-28T01:35:54;97457.25;;;11.30;54.53
46714;BME280;32445;51.376;10.874;2022-09-28T01:39:02;97455.38;;;11.32;54.12
46714;BME280;32445;51.376;10.874;2022-09-28T01:42:10;97444.19;;;11.31;54.28
46714;BME280;32445;51.376;10.874;2022-09-28T01:45:19;97442.50;;;11.30;54.05
46714;BME280;32445;51.376;10.874;2022-09-28T01:48:35;97446.06;;;11.29;54.64
46714;BME280;32445;51.376;10.874;2022-09-28T01:51:58;97440.84;;;11.29;54.79
46714;BME280;32445;51.376;10.874;2022-09-28T01:55:09;97437.31;;;11.30;54.85
46714;BME280;32445;51.376;10.874;2022-09-28T01:58:21;97432.09;;;11.30;54.68
46714;BME280;32445;51.376;10.874;2022-09-28T02:01:33;97433.88;;;11.30;55.04
46714;BME280;32445;51.376;10.874;2022-09-28T02:04:40;97424.31;;;11.30;54.42
46714;BME280;32445;51.376;10.874;2022-09-28T02:07:46;97432.97;;;11.31;54.37
46714;BME280;32445;51.376;10.874;2022-09-28T02:14:05;97419.97;;;11.31;54.77
46714;BME280;32445;51.376;10.874;2022-09-28T02:17:08;97418.09;;;11.33;54.29
46714;BME280;32445;51.376;10.874;2022-09-28T02:20:09;97418.09;;;11.33;55.00
46714;BME280;32445;51.376;10.874;2022-09-28T02:23:10;97414.78;;;11.31;55.02
46714;BME280;32445;51.376;10.874;2022-09-28T02:26:12;97417.56;;;11.28;55.36
46714;BME280;32445;51.376;10.874;2022-09-28T02:29:16;97421.00;;;11.28;55.23
46714;BME280;32445;51.376;10.874;2022-09-28T02:32:18;97418.41;;;11.28;55.09
46714;BME280;32445;51.376;10.874;2022-09-28T02:35:19;97411.53;;;11.27;54.60
46714;BME280;32445;51.376;10.874;2022-09-28T02:38:21;97406.34;;;11.27;55.00
46714;BME280;32445;51.376;10.874;2022-09-28T02:41:54;97405.41;;;11.28;55.54
46714;BME280;32445;51.376;10.874;2022-09-28T02:45:21;97410.50;;;11.30;55.15
46714;BME280;32445;51.376;10.874;2022-09-28T03:01:58;97392.94;;;11.33;54.91
46714;BME280;32445;51.376;10.874;2022-09-28T03:05:11;97391.31;;;11.32;55.03
46714;BME280;32445;51.376;10.874;2022-09-28T03:08:22;97384.25;;;11.34;55.05
46714;BME280;32445;51.376;10.874;2022-09-28T03:11:32;97379.81;;;11.36;54.70
46714;BME280;32445;51.376;10.874;2022-09-28T03:14:34;97383.94;;;11.39;54.80
46714;BME280;32445;51.376;10.874;2022-09-28T03:17:34;97380.41;;;11.40;54.80
46714;BME280;32445;51.376;10.874;2022-09-28T03:20:35;97376.25;;;11.37;54.58
46714;BME280;32445;51.376;10.874;2022-09-28T03:23:36;97378.22;;;11.34;54.58
46714;BME280;32445;51.376;10.874;2022-09-28T03:26:39;97372.28;;;11.32;54.82
46714;BME280;32445;51.376;10.874;2022-09-28T03:29:40;97371.34;;;11.33;54.73
46714;BME280;32445;51.376;10.874;2022-09-28T03:32:41;97366.97;;;11.33;54.56
46714;BME280;32445;51.376;10.874;2022-09-28T03:35:43;97355.56;;;11.36;54.69
46714;BME280;32445;51.376;10.874;2022-09-28T03:38:44;97358.91;;;11.38;54.47
46714;BME280;32445;51.376;10.874;2022-09-28T03:41:45;97357.97;;;11.39;54.57
46714;BME280;32445;51.376;10.874;2022-09-28T03:44:45;97359.63;;;11.40;54.94
46714;BME280;32445;51.376;10.874;2022-09-28T03:47:46;97356.13;;;11.41;54.80
46714;BME280;32445;51.376;10.874;2022-09-28T03:50:47;97354.25;;;11.43;54.92
46714;BME280;32445;51.376;10.874;2022-09-28T03:53:51;97347.41;;;11.42;54.62
46714;BME280;32445;51.376;10.874;2022-09-28T03:56:51;97346.44;;;11.43;54.83
46714;BME280;32445;51.376;10.874;2022-09-28T03:59:51;97339.50;;;11.43;54.99
46714;BME280;32445;51.376;10.874;2022-09-28T04:02:52;97329.94;;;11.44;55.03
46714;BME280;32445;51.376;10.874;2022-09-28T04:05:52;97330.66;;;11.46;54.77
46714;BME280;32445;51.376;10.874;2022-09-28T04:08:53;97330.97;;;11.41;54.57
46714;BME280;32445;51.376;10.874;2022-09-28T04:11:53;97322.34;;;11.41;55.11
46714;BME280;32445;51.376;10.874;2022-09-28T04:14:53;97323.16;;;11.41;54.66
46714;BME280;32445;51.376;10.874;2022-09-28T04:17:54;97318.94;;;11.40;54.64
46714;BME280;32445;51.376;10.874;2022-09-28T04:21:15;97319.75;;;11.41;55.64
46714;BME280;32445;51.376;10.874;2022-09-28T04:24:16;97321.22;;;11.45;54.82
46714;BME280;32445;51.376;10.874;2022-09-28T04:27:16;97320.28;;;11.46;55.25
46714;BME280;32445;51.376;10.874;2022-09-28T04:30:35;97315.06;;;11.46;54.94
46714;BME280;32445;51.376;10.874;2022-09-28T04:33:35;97307.28;;;11.46;55.11
46714;BME280;32445;51.376;10.874;2022-09-28T04:36:36;97304.63;;;11.48;55.27
46714;BME280;32445;51.376;10.874;2022-09-28T04:39:36;97305.53;;;11.47;55.18
46714;BME280;32445;51.376;10.874;2022-09-28T04:42:37;97300.34;;;11.47;55.08
46714;BME280;32445;51.376;10.874;2022-09-28T04:45:37;97294.22;;;11.48;54.79
46714;BME280;32445;51.376;10.874;2022-09-28T04:48:37;97294.22;;;11.48;54.70
46714;BME280;32445;51.376;10.874;2022-09-28T04:51:38;97287.34;;;11.47;55.08
46714;BME280;32445;51.376;10.874;2022-09-28T04:54:38;97285.56;;;11.47;54.68
46714;BME280;32445;51.376;10.874;2022-09-28T04:57:39;97290.78;;;11.47;54.64
46714;BME280;32445;51.376;10.874;2022-09-28T05:00:39;97291.63;;;11.48;54.95
46714;BME280;32445;51.376;10.874;2022-09-28T05:03:40;97289.94;;;11.47;55.03
46714;BME280;32445;51.376;10.874;2022-09-28T05:06:41;97283.84;;;11.48;54.96
46714;BME280;32445;51.376;10.874;2022-09-28T05:09:41;97281.22;;;11.48;54.79
46714;BME280;32445;51.376;10.874;2022-09-28T05:12:41;97282.88;;;11.49;55.09
46714;BME280;32445;51.376;10.874;2022-09-28T05:15:42;97277.78;;;11.47;55.09
46714;BME280;32445;51.376;10.874;2022-09-28T05:18:42;97277.69;;;11.49;55.23
46714;BME280;32445;51.376;10.874;2022-09-28T05:21:44;97282.88;;;11.49;55.31
46714;BME280;32445;51.376;10.874;2022-09-28T05:24:44;97278.63;;;11.48;55.23
46714;BME280;32445;51.376;10.874;2022-09-28T05:27:45;97278.53;;;11.49;54.87
46714;BME280;32445;51.376;10.874;2022-09-28T05:30:46;97269.88;;;11.49;55.00
46714;BME280;32445;51.376;10.874;2022-09-28T05:33:46;97274.16;;;11.50;55.14
46714;BME280;32445;51.376;10.874;2022-09-28T05:36:47;97277.56;;;11.50;55.36
46714;BME280;32445;51.376;10.874;2022-09-28T05:39:47;97275.84;;;11.51;54.98
46714;BME280;32445;51.376;10.874;2022-09-28T05:42:48;97268.03;;;11.51;55.01
46714;BME280;32445;51.376;10.874;2022-09-28T05:45:48;97270.63;;;11.51;55.28
46714;BME280;32445;51.376;10.874;2022-09-28T05:48:49;97268.84;;;11.51;55.24
46714;BME280;32445;51.376;10.874;2022-09-28T05:51:51;97266.25;;;11.51;55.47
46714;BME280;32445;51.376;10.874;2022-09-28T05:54:51;97262.00;;;11.50;55.63
46714;BME280;32445;51.376;10.874;2022-09-28T05:57:52;97266.25;;;11.51;55.58
46714;BME280;32445;51.376;10.874;2022-09-28T06:00:54;97266.25;;;11.51;55.54
46714;BME280;32445;51.376;10.874;2022-09-28T06:03:55;97273.03;;;11.54;55.11
46714;BME280;32445;51.376;10.874;2022-09-28T06:06:55;97271.25;;;11.54;55.26
46714;BME280;32445;51.376;10.874;2022-09-28T06:09:55;97269.50;;;11.55;55.04
46714;BME280;32445;51.376;10.874;2022-09-28T06:12:57;97271.34;;;11.53;55.04
46714;BME280;32445;51.376;10.874;2022-09-28T06:15:57;97264.31;;;11.55;54.96
46714;BME280;32445;51.376;10.874;2022-09-28T06:18:57;97270.31;;;11.55;55.46
46714;BME280;32445;51.376;10.874;2022-09-28T06:21:58;97260.75;;;11.56;55.16
46714;BME280;32445;51.376;10.874;2022-09-28T06:24:59;97262.53;;;11.55;55.47
46714;BME280;32445;51.376;10.874;2022-09-28T06:28:02;97261.59;;;11.56;55.10
46714;BME280;32445;51.376;10.874;2022-09-28T06:31:03;97258.91;;;11.58;55.50
46714;BME280;32445;51.376;10.874;2022-09-28T06:34:03;97258.91;;;11.58;55.76
46714;BME280;32445;51.376;10.874;2022-09-28T06:37:04;97253.72;;;11.58;55.78
46714;BME280;32445;51.376;10.874;2022-09-28T06:40:04;97256.31;;;11.58;56.10
46714;BME280;32445;51.376;10.874;2022-09-28T06:43:08;97256.19;;;11.59;56.32
46714;BME280;32445;51.376;10.874;2022-09-28T06:46:09;97262.13;;;11.62;55.85
46714;BME280;32445;51.376;10.874;2022-09-28T06:49:09;97261.19;;;11.63;55.53
46714;BME280;32445;51.376;10.874;2022-09-28T06:52:10;97262.13;;;11.62;55.39
46714;BME280;32445;51.376;10.874;2022-09-28T06:55:11;97260.53;;;11.59;56.11
46714;BME280;32445;51.376;10.874;2022-09-28T06:58:13;97264.00;;;11.59;55.64
46714;BME280;32445;51.376;10.874;2022-09-28T07:01:13;97262.97;;;11.62;55.48
46714;BME280;32445;51.376;10.874;2022-09-28T07:04:14;97266.28;;;11.64;55.40
46714;BME280;32445;51.376;10.874;2022-09-28T07:07:14;97268.78;;;11.66;55.54
46714;BME280;32445;51.376;10.874;2022-09-28T07:10:15;97267.97;;;11.65;55.64
46714;BME280;32445;51.376;10.874;2022-09-28T07:13:15;97265.34;;;11.65;55.23
46714;BME280;32445;51.376;10.874;2022-09-28T07:16:16;97269.53;;;11.68;55.67
46714;BME280;32445;51.376;10.874;2022-09-28T07:19:16;97274.63;;;11.69;55.40
46714;BME280;32445;51.376;10.874;2022-09-28T07:22:20;97279.72;;;11.71;55.74
46714;BME280;32445;51.376;10.874;2022-09-28T07:25:21;97273.47;;;11.73;55.52
46714;BME280;32445;51.376;10.874;2022-09-28T07:28:23;97275.13;;;11.74;55.52
46714;BME280;32445;51.376;10.874;2022-09-28T07:31:23;97278.47;;;11.76;55.02
46714;BME280;32445;51.376;10.874;2022-09-28T07:34:24;97285.22;;;11.79;55.82
46714;BME280;32445;51.376;10.874;2022-09-28T07:37:24;97288.66;;;11.80;55.42
46714;BME280;32445;51.376;10.874;2022-09-28T07:40:26;97293.97;;;11.78;55.73
46714;BME280;32445;51.376;10.874;2022-09-28T07:43:45;97297.59;;;11.75;55.81
46714;BME280;32445;51.376;10.874;2022-09-28T07:46:45;97298.53;;;11.74;55.96
46714;BME280;32445;51.376;10.874;2022-09-28T07:49:45;97301.88;;;11.76;55.70
46714;BME280;32445;51.376;10.874;2022-09-28T07:52:47;97301.75;;;11.78;55.57
46714;BME280;32445;51.376;10.874;2022-09-28T07:55:58;97301.75;;;11.78;55.73
46714;BME280;32445;51.376;10.874;2022-09-28T07:59:06;97306.53;;;11.84;55.17
46714;BME280;32445;51.376;10.874;2022-09-28T08:02:08;97307.28;;;11.86;55.67
46714;BME280;32445;51.376;10.874;2022-09-28T08:05:09;97307.09;;;11.89;55.71
46714;BME280;32445;51.376;10.874;2022-09-28T08:08:10;97308.63;;;11.92;55.96
46714;BME280;32445;51.376;10.874;2022-09-28T08:11:12;97308.25;;;11.98;55.31
46714;BME280;32445;51.376;10.874;2022-09-28T08:14:13;97314.06;;;12.02;55.72
46714;BME280;32445;51.376;10.874;2022-09-28T08:17:14;97316.56;;;12.03;55.31
46714;BME280;32445;51.376;10.874;2022-09-28T08:20:15;97324.25;;;12.05;55.27
46714;BME280;32445;51.376;10.874;2022-09-28T08:23:34;97321.28;;;12.11;55.45
46714;BME280;32445;51.376;10.874;2022-09-28T08:26:34;97320.41;;;12.10;55.67
46714;BME280;32445;51.376;10.874;2022-09-28T08:29:35;97320.31;;;12.12;55.87
46714;BME280;32445;51.376;10.874;2022-09-28T08:32:35;97327.72;;;12.18;55.79
46714;BME280;32445;51.376;10.874;2022-09-28T08:35:36;97329.06;;;12.24;55.42
46714;BME280;32445;51.376;10.874;2022-09-28T08:38:36;97331.38;;;12.28;55.27
46714;BME280;32445;51.376;10.874;2022-09-28T08:45:15;97341.97;;;12.38;55.34
46714;BME280;32445;51.376;10.874;2022-09-28T08:48:22;97340.94;;;12.41;55.30
46714;BME280;32445;51.376;10.874;2022-09-28T08:51:51;97347.69;;;12.43;55.47
46714;BME280;32445;51.376;10.874;2022-09-28T08:55:03;97353.22;;;12.39;56.02
46714;BME280;32445;51.376;10.874;2022-09-28T08:58:14;97353.31;;;12.37;56.37
46714;BME280;32445;51.376;10.874;2022-09-28T09:01:16;97351.63;;;12.36;56.53
46714;BME280;32445;51.376;10.874;2022-09-28T09:04:18;97359.16;;;12.41;55.96
46714;BME280;32445;51.376;10.874;2022-09-28T09:13:42;97373.28;;;12.24;56.58
46714;BME280;32445;51.376;10.874;2022-09-28T09:26:42;97383.00;;;11.94;57.24
46714;BME280;32445;51.376;10.874;2022-09-28T09:33:36;97382.72;;;11.72;57.88
46714;BME280;32445;51.376;10.874;2022-09-28T09:40:16;97394.25;;;11.68;58.83
46714;BME280;32445;51.376;10.874;2022-09-28T09:46:39;97402.38;;;11.76;59.08
46714;BME280;32445;51.376;10.874;2022-09-28T09:55:51;97407.28;;;11.95;58.14
46714;BME280;32445;51.376;10.874;2022-09-28T10:02:30;97401.69;;;12.14;58.35
46714;BME280;32445;51.376;10.874;2022-09-28T10:05:33;97410.31;;;12.27;58.16
46714;BME280;32445;51.376;10.874;2022-09-28T10:08:34;97408.28;;;12.45;56.86
46714;BME280;32445;51.376;10.874;2022-09-28T10:11:41;97402.66;;;12.64;56.21
46714;BME280;32445;51.376;10.874;2022-09-28T10:14:42;97415.53;;;12.79;56.18
46714;BME280;32445;51.376;10.874;2022-09-28T10:17:42;97407.72;;;12.92;55.34
46714;BME280;32445;51.376;10.874;2022-09-28T10:20:43;97418.25;;;12.90;53.92
46714;BME280;32445;51.376;10.874;2022-09-28T10:23:54;97422.44;;;12.80;54.12
46714;BME280;32445;51.376;10.874;2022-09-28T10:27:00;97429.22;;;12.70;53.34
46714;BME280;32445;51.376;10.874;2022-09-28T10:33:29;97435.66;;;12.64;53.85
46714;BME280;32445;51.376;10.874;2022-09-28T10:36:31;97439.41;;;12.73;53.77
46714;BME280;32445;51.376;10.874;2022-09-28T10:39:48;97440.44;;;12.83;53.98
46714;BME280;32445;51.376;10.874;2022-09-28T10:42:50;97447.94;;;12.88;53.55
46714;BME280;32445;51.376;10.874;2022-09-28T10:49:11;97449.06;;;12.84;53.64
46714;BME280;32445;51.376;10.874;2022-09-28T10:55:32;97443.13;;;12.94;53.16
46714;BME280;32445;51.376;10.874;2022-09-28T10:58:40;97453.03;;;13.02;53.19
46714;BME280;32445;51.376;10.874;2022-09-28T11:01:41;97446.78;;;13.05;53.25
46714;BME280;32445;51.376;10.874;2022-09-28T11:04:50;97453.53;;;13.07;53.00
46714;BME280;32445;51.376;10.874;2022-09-28T11:07:50;97443.84;;;13.09;52.85
46714;BME280;32445;51.376;10.874;2022-09-28T11:11:06;97452.72;;;13.07;53.13
46714;BME280;32445;51.376;10.874;2022-09-28T11:20:37;97448.84;;;13.25;52.73
46714;BME280;32445;51.376;10.874;2022-09-28T11:23:39;97448.50;;;13.30;52.47
46714;BME280;32445;51.376;10.874;2022-09-28T11:26:43;97447.28;;;13.36;52.52
46714;BME280;32445;51.376;10.874;2022-09-28T11:29:53;97449.88;;;13.36;52.94
46714;BME280;32445;51.376;10.874;2022-09-28T11:33:24;97454.06;;;13.38;52.79
46714;BME280;32445;51.376;10.874;2022-09-28T11:37:21;97447.25;;;13.48;52.50
46714;BME280;32445;51.376;10.874;2022-09-28T11:50:41;97465.00;;;14.16;50.68
46714;BME280;32445;51.376;10.874;2022-09-28T11:54:10;97468.94;;;14.22;49.75
46714;BME280;32445;51.376;10.874;2022-09-28T11:57:20;97472.88;;;14.27;49.81
46714;BME280;32445;51.376;10.874;2022-09-28T12:00:21;97476.81;;;14.33;49.56
46714;BME280;32445;51.376;10.874;2022-09-28T12:03:28;97468.75;;;14.36;49.23
46714;BME280;32445;51.376;10.874;2022-09-28T12:06:52;97474.00;;;14.47;49.15
46714;BME280;32445;51.376;10.874;2022-09-28T12:13:07;97472.66;;;14.66;48.56
46714;BME280;32445;51.376;10.874;2022-09-28T12:16:35;97468.03;;;14.69;48.29
46714;BME280;32445;51.376;10.874;2022-09-28T12:23:14;97476.16;;;14.53;48.05
46714;BME280;32445;51.376;10.874;2022-09-28T12:29:38;97479.59;;;14.54;48.24
46714;BME280;32445;51.376;10.874;2022-09-28T12:35:53;97472.78;;;14.64;47.71
46714;BME280;32445;51.376;10.874;2022-09-28T12:39:18;97477.41;;;14.72;48.34
46714;BME280;32445;51.376;10.874;2022-09-28T12:52:38;97476.50;;;15.18;47.71
46714;BME280;32445;51.376;10.874;2022-09-28T12:56:02;97478.53;;;15.26;47.46
46714;BME280;32445;51.376;10.874;2022-09-28T13:09:25;97490.88;;;15.35;46.63
46714;BME280;32445;51.376;10.874;2022-09-28T13:12:33;97492.69;;;15.35;47.12
46714;BME280;32445;51.376;10.874;2022-09-28T13:25:15;97483.84;;;15.47;46.71
46714;BME280;32445;51.376;10.874;2022-09-28T13:28:18;97489.81;;;15.49;46.76
46714;BME280;32445;51.376;10.874;2022-09-28T13:31:23;97500.28;;;15.49;45.65
46714;BME280;32445;51.376;10.874;2022-09-28T13:34:33;97500.97;;;15.40;44.27
46714;BME280;32445;51.376;10.874;2022-09-28T13:37:35;97505.88;;;15.33;44.65
46714;BME280;32445;51.376;10.874;2022-09-28T13:47:15;97510.59;;;15.17;44.59
46714;BME280;32445;51.376;10.874;2022-09-28T13:54:02;97515.34;;;15.00;45.43
46714;BME280;32445;51.376;10.874;2022-09-28T14:00:24;97508.69;;;15.08;45.24
46714;BME280;32445;51.376;10.874;2022-09-28T14:03:40;97511.56;;;15.16;45.07
46714;BME280;32445;51.376;10.874;2022-09-28T14:07:08;97509.41;;;15.21;45.11
46714;BME280;32445;51.376;10.874;2022-09-28T14:16:42;97543.84;;;15.03;47.17
46714;BME280;32445;51.376;10.874;2022-09-28T14:19:43;97552.47;;;14.93;48.36
46714;BME280;32445;51.376;10.874;2022-09-28T14:32:31;97555.25;;;15.02;49.28
46714;BME280;32445;51.376;10.874;2022-09-28T14:35:40;97557.63;;;15.05;48.88
46714;BME280;32445;51.376;10.874;2022-09-28T14:38:46;97554.88;;;15.07;48.91
46714;BME280;32445;51.376;10.874;2022-09-28T14:42:12;97556.31;;;15.11;49.04
46714;BME280;32445;51.376;10.874;2022-09-28T14:45:18;97556.00;;;15.16;48.90
46714;BME280;32445;51.376;10.874;2022-09-28T14:48:20;97564.28;;;15.21;48.22
46714;BME280;32445;51.376;10.874;2022-09-28T14:54:47;97558.84;;;15.24;48.14
46714;BME280;32445;51.376;10.874;2022-09-28T14:57:54;97559.44;;;15.28;48.97
46714;BME280;32445;51.376;10.874;2022-09-28T15:01:04;97555.84;;;15.29;49.04
46714;BME280;32445;51.376;10.874;2022-09-28T15:04:08;97556.59;;;15.31;49.13
46714;BME280;32445;51.376;10.874;2022-09-28T15:07:23;97557.41;;;15.31;49.43
46714;BME280;32445;51.376;10.874;2022-09-28T15:13:31;97563.13;;;15.36;48.95
46714;BME280;32445;51.376;10.874;2022-09-28T15:16:32;97556.13;;;15.37;48.91
46714;BME280;32445;51.376;10.874;2022-09-28T15:22:45;97561.94;;;15.40;49.64
46714;BME280;32445;51.376;10.874;2022-09-28T15:25:51;97558.59;;;15.38;48.92
46714;BME280;32445;51.376;10.874;2022-09-28T15:28:52;97563.72;;;15.40;48.53
46714;BME280;32445;51.376;10.874;2022-09-28T15:31:53;97560.97;;;15.42;47.52
46714;BME280;32445;51.376;10.874;2022-09-28T15:34:54;97564.09;;;15.47;48.22
46714;BME280;32445;51.376;10.874;2022-09-28T15:37:56;97574.19;;;15.51;47.80
46714;BME280;32445;51.376;10.874;2022-09-28T15:40:56;97568.63;;;15.56;47.20
46714;BME280;32445;51.376;10.874;2022-09-28T15:44:07;97578.97;;;15.57;47.27
46714;BME280;32445;51.376;10.874;2022-09-28T15:47:24;97584.75;;;15.61;46.92
46714;BME280;32445;51.376;10.874;2022-09-28T15:50:27;97586.06;;;15.67;47.26
46714;BME280;32445;51.376;10.874;2022-09-28T15:53:29;97595.47;;;15.69;48.04
46714;BME280;32445;51.376;10.874;2022-09-28T15:56:30;97597.03;;;15.72;47.98
46714;BME280;32445;51.376;10.874;2022-09-28T15:59:32;97598.53;;;15.74;48.92
46714;BME280;32445;51.376;10.874;2022-09-28T16:02:37;97594.97;;;15.75;47.91
46714;BME280;32445;51.376;10.874;2022-09-28T16:08:57;97600.09;;;15.77;48.01
46714;BME280;32445;51.376;10.874;2022-09-28T16:11:58;97608.91;;;15.76;48.24
46714;BME280;32445;51.376;10.874;2022-09-28T16:21:41;97618.28;;;15.67;46.66
46714;BME280;32445;51.376;10.874;2022-09-28T16:24:52;97615.66;;;15.67;47.49
46714;BME280;32445;51.376;10.874;2022-09-28T16:27:54;97616.63;;;15.66;47.68
46714;BME280;32445;51.376;10.874;2022-09-28T16:31:00;97617.81;;;15.62;47.37
46714;BME280;32445;51.376;10.874;2022-09-28T16:34:18;97621.72;;;15.56;47.61
46714;BME280;32445;51.376;10.874;2022-09-28T16:37:30;97624.59;;;15.53;47.52
46714;BME280;32445;51.376;10.874;2022-09-28T16:40:31;97629.09;;;15.51;47.36
46714;BME280;32445;51.376;10.874;2022-09-28T16:43:32;97630.25;;;15.47;47.32
46714;BME280;32445;51.376;10.874;2022-09-28T16:46:35;97634.28;;;15.40;47.63
46714;BME280;32445;51.376;10.874;2022-09-28T16:49:38;97634.78;;;15.34;47.89
46714;BME280;32445;51.376;10.874;2022-09-28T16:52:38;97637.75;;;15.29;47.77
46714;BME280;32445;51.376;10.874;2022-09-28T16:55:58;97641.66;;;15.23;48.02
46714;BME280;32445;51.376;10.874;2022-09-28T16:58:58;97650.53;;;15.21;47.96
46714;BME280;32445;51.376;10.874;2022-09-28T17:02:01;97654.44;;;15.15;48.50
46714;BME280;32445;51.376;10.874;2022-09-28T17:05:01;97648.75;;;15.10;48.63
46714;BME280;32445;51.376;10.874;2022-09-28T17:08:03;97658.59;;;15.07;48.34
46714;BME280;32445;51.376;10.874;2022-09-28T17:11:03;97666.66;;;15.03;48.69
46714;BME280;32445;51.376;10.874;2022-09-28T17:14:04;97665.19;;;14.99;48.71
46714;BME280;32445;51.376;10.874;2022-09-28T17:17:05;97663.88;;;14.94;48.54
46714;BME280;32445;51.376;10.874;2022-09-28T17:20:26;97664.56;;;14.84;48.82
46714;BME280;32445;51.376;10.874;2022-09-28T17:23:28;97668.22;;;14.82;48.82
46714;BME280;32445;51.376;10.874;2022-09-28T17:26:29;97661.78;;;14.75;48.56
46714;BME280;32445;51.376;10.874;2022-09-28T17:29:30;97661.38;;;14.68;48.43
46714;BME280;32445;51.376;10.874;2022-09-28T17:32:32;97667.06;;;14.62;48.41
46714;BME280;32445;51.376;10.874;2022-09-28T17:35:34;97677.88;;;14.56;48.63
46714;BME280;32445;51.376;10.874;2022-09-28T17:38:36;97686.16;;;14.49;48.49
46714;BME280;32445;51.376;10.874;2022-09-28T17:41:36;97687.56;;;14.42;48.30
46714;BME280;32445;51.376;10.874;2022-09-28T17:44:36;97689.88;;;14.34;48.58
46714;BME280;32445;51.376;10.874;2022-09-28T17:47:37;97695.53;;;14.28;48.78
46714;BME280;32445;51.376;10.874;2022-09-28T17:50:37;97699.63;;;14.19;49.04
46714;BME280;32445;51.376;10.874;2022-09-28T17:53:38;97703.38;;;14.15;49.16
46714;BME280;32445;51.376;10.874;2022-09-28T17:56:39;97702.03;;;14.09;48.85
46714;BME280;32445;51.376;10.874;2022-09-28T17:59:39;97703.19;;;14.05;49.10
46714;BME280;32445;51.376;10.874;2022-09-28T18:02:40;97710.41;;;14.01;49.11
46714;BME280;32445;51.376;10.874;2022-09-28T18:05:41;97705.47;;;13.97;48.96
46714;BME280;32445;51.376;10.874;2022-09-28T18:08:42;97707.59;;;13.92;49.25
46714;BME280;32445;51.376;10.874;2022-09-28T18:11:43;97712.25;;;13.87;49.52
46714;BME280;32445;51.376;10.874;2022-09-28T18:14:44;97709.97;;;13.82;49.36
46714;BME280;32445;51.376;10.874;2022-09-28T18:17:46;97718.22;;;13.76;49.48
46714;BME280;32445;51.376;10.874;2022-09-28T18:20:46;97714.25;;;13.70;49.54
46714;BME280;32445;51.376;10.874;2022-09-28T18:23:47;97721.53;;;13.65;49.62
46714;BME280;32445;51.376;10.874;2022-09-28T18:26:47;97719.25;;;13.60;49.73
46714;BME280;32445;51.376;10.874;2022-09-28T18:29:47;97712.69;;;13.55;49.57
46714;BME280;32445;51.376;10.874;2022-09-28T18:32:48;97721.63;;;13.50;49.87
46714;BME280;32445;51.376;10.874;2022-09-28T18:35:50;97716.84;;;13.44;50.00
46714;BME280;32445;51.376;10.874;2022-09-28T18:38:51;97734.53;;;13.39;50.03
46714;BME280;32445;51.376;10.874;2022-09-28T18:41:52;97731.50;;;13.32;49.88
46714;BME280;32445;51.376;10.874;2022-09-28T18:44:52;97736.16;;;13.27;49.68
46714;BME280;32445;51.376;10.874;2022-09-28T18:47:52;97735.72;;;13.21;49.81
46714;BME280;32445;51.376;10.874;2022-09-28T18:50:53;97729.13;;;13.15;49.91
46714;BME280;32445;51.376;10.874;2022-09-28T18:53:53;97730.47;;;13.08;49.76
46714;BME280;32445;51.376;10.874;2022-09-28T18:56:55;97745.66;;;13.01;50.11
46714;BME280;32445;51.376;10.874;2022-09-28T18:59:56;97744.41;;;12.94;49.95
46714;BME280;32445;51.376;10.874;2022-09-28T19:02:56;97749.97;;;12.88;49.67
46714;BME280;32445;51.376;10.874;2022-09-28T19:05:56;97754.75;;;12.81;49.78
46714;BME280;32445;51.376;10.874;2022-09-28T19:08:57;97755.13;;;12.75;50.01
46714;BME280;32445;51.376;10.874;2022-09-28T19:11:58;97757.28;;;12.68;50.23